Tovey, IL (62570)

9:36 PM CDT on July 31, 2015 (GMT -0500)
RURAL KINCAID IL USA | | Change Station
CLOSE
Current Station
Personal Weather Station
Location: PAWNEE, IL
Elevation: 610 ft
Nearby Weather Stations

Elev 610 ft 39.57 °N, 89.43 °W | Updated 1 minute ago

Partly Cloudy
Partly Cloudy
77.2 °F
Feels Like 79 °F
N
0.0
Wind Variable Wind from North
Gusts 0.0 mph

Today
High -- | Low -- °F
--% Chance of Precip.
Yesterday
High -- | Low -- °F
Precip. -- in
5:56 AM 8:11 PM
Full, 99% visible
Pressure 30.02 in
Visibility 10.0 miles
Clouds Scattered Clouds 4700 ft
Heat Index 79 °F
Dew Point 60 °F
Humidity 55%
Rainfall 0.00 in
Snow Depth Not available.
UV 0 out of 12
Pollen 6.60 out of 12
Air Quality Not available.
Flu Activity Not available.
METAR KTAZ 010215Z AUTO 27005KT 10SM SCT047 23/21 A3002 RMK AO2

More Conditions Fewer Conditions

Pressure 30.02 in
Visibility 10.0 miles
Clouds Scattered Clouds 4700 ft
Heat Index 79 °F
Dew Point 60 °F
Humidity 55%
Rainfall 0.00 in
Snow Depth Not available.
UV 0 out of 12
Pollen 6.60 out of 12
Air Quality Not available.
Flu Activity Not available.
METAR KTAZ 010215Z AUTO 27005KT 10SM SCT047 23/21 A3002 RMK AO2

More Conditions Fewer Conditions

10-Day Weather Forecast

×

Almanac

Astronomy

Jul. 31, 2015 Rise Set
Actual Time
Civil Twilight
Nautical Twilight
Astronomical Twilight
Moon
Length of Visible Light
Length of Day
Tomorrow will be .
, % of the Moon is Illuminated

Today's Extremes

State Highs State Lows

Community

WunderPhotos

Upload Photos

1,842,829 photos uploaded!

WunderBlogs® & News

Nearby

Air Quality

  Air Quality AQ Index Pollutant
Not available.

Snow Depth

Station Depth Elevation

Earthquake Activity

City Distance Mag. Time & Date
Minimum magnitude displayed is 2.5.

Coastal Water Temperatures

Place Temperature

Stations

Nearby Weather Stations

Station Location Temp. Windchill Dew Point Humidity Wind Precip. Elev Updated Type